KCGZ/CGZ METAR and TAF weather

Enter ICAO airport designator
Station Type Date Time Source
KCGZ METAR 2020/06/06 11:56 UTC NOAA

KCGZ 061156Z AUTO 17009KT 10SM CLR 21/10 A2979 RMK AO2 SLP072 6//// 7//// T02060100 10283 20206 51018


Station Type Date Time Source
KCGZ Decoded METAR 2020/06/06 11:56 UTC NOAA

Casa Grande, Casa Grande Municipal Airport, AZ, United States (KCGZ) 32-57N 111-46W
Jun 06, 2020 - 07:56 AM EDT / 2020.06.06 1156 UTC
Wind: from the S (170 degrees) at 10 MPH (9 KT):0
Visibility: 10 mile(s):0
Sky conditions: clear
Temperature: 69.1 F (20.6 C)
Dew Point: 50.0 F (10.0 C)
Relative Humidity: 50%
Pressure (altimeter): 29.79 in. Hg (1008 hPa)
Pressure tendency: 0.05 inches (1.8 hPa) higher than three hours ago
ob: KCGZ 061156Z AUTO 17009KT 10SM CLR 21/10 A2979 RMK AO2 SLP072 6//// 7//// T02060100 10283 20206 51018
cycle: 12

Station Type Date Time Source
KCGZ TAF UTC NOAA

Error!

Example: see airport list